Time,TemperatureF,DewpointF,PressureIn,WindDirection,WindDirectionDegrees,WindSpeedMPH,WindSpeedGustMPH,Humidity,HourlyPrecipIn,Conditions,Clouds,dailyrainin,SoftwareType,DateUTC
2013-01-31 00:01:00,44.1,39.9,30.08,ESE,111,0.0,0.0,85,0.00,,,0.00,Wunderground v.1.15,2013-01-31 08:01:00,
2013-01-31 00:10:00,43.9,40.0,30.08,ESE,111,0.0,0.0,86,0.00,,,0.00,Wunderground v.1.15,2013-01-31 08:10:00,
2013-01-31 00:20:00,43.7,39.8,30.08,ESE,111,0.0,0.0,86,0.00,,,0.00,Wunderground v.1.15,2013-01-31 08:20:00,
2013-01-31 00:25:00,43.6,39.7,30.08,ESE,111,0.0,0.0,86,0.00,,,0.00,Wunderground v.1.15,2013-01-31 08:25:00,
2013-01-31 00:35:00,43.4,39.8,30.08,ESE,111,0.0,0.0,87,0.00,,,0.00,Wunderground v.1.15,2013-01-31 08:35:00,
2013-01-31 00:45:00,43.4,40.1,30.08,ESE,111,0.0,0.0,88,0.00,,,0.00,Wunderground v.1.15,2013-01-31 08:45:00,
2013-01-31 00:55:00,43.4,40.1,30.08,ESE,111,0.0,0.0,88,0.00,,,0.00,Wunderground v.1.15,2013-01-31 08:55:00,
2013-01-31 01:00:00,43.3,40.0,30.08,ESE,111,0.0,0.0,88,0.00,,,0.00,Wunderground v.1.15,2013-01-31 09:00:00,
2013-01-31 01:05:00,43.3,40.0,30.08,ESE,111,0.0,0.0,88,0.00,,,0.00,Wunderground v.1.15,2013-01-31 09:05:00,
2013-01-31 01:15:00,43.1,39.8,30.08,ESE,111,0.0,0.0,88,0.00,,,0.00,Wunderground v.1.15,2013-01-31 09:15:00,
2013-01-31 01:25:00,43.0,39.7,30.08,ESE,111,0.0,0.0,88,0.00,,,0.00,Wunderground v.1.15,2013-01-31 09:25:00,
2013-01-31 01:30:00,43.0,40.0,30.08,ESE,111,0.0,0.0,89,0.00,,,0.00,Wunderground v.1.15,2013-01-31 09:30:00,
2013-01-31 01:40:00,43.0,40.0,30.08,ESE,111,0.0,0.0,89,0.00,,,0.00,Wunderground v.1.15,2013-01-31 09:40:00,
2013-01-31 01:50:00,43.0,40.0,30.07,ESE,111,0.0,0.0,89,0.00,,,0.00,Wunderground v.1.15,2013-01-31 09:50:00,
2013-01-31 01:55:00,42.9,39.9,30.07,ESE,111,0.0,0.0,89,0.00,,,0.00,Wunderground v.1.15,2013-01-31 09:55:00,
2013-01-31 02:00:00,42.9,39.9,30.07,ESE,111,0.0,0.0,89,0.00,,,0.00,Wunderground v.1.15,2013-01-31 10:00:00,
2013-01-31 02:10:00,42.8,39.8,30.07,ESE,111,0.0,0.0,89,0.00,,,0.00,Wunderground v.1.15,2013-01-31 10:10:00,
2013-01-31 02:15:00,42.8,39.8,30.08,ESE,111,0.0,0.0,89,0.00,,,0.00,Wunderground v.1.15,2013-01-31 10:15:00,
2013-01-31 02:25:00,42.6,39.6,30.08,ESE,111,0.0,0.0,89,0.00,,,0.00,Wunderground v.1.15,2013-01-31 10:25:00,
2013-01-31 02:35:00,42.4,39.4,30.07,ESE,111,0.0,0.0,89,0.00,,,0.00,Wunderground v.1.15,2013-01-31 10:35:00,
2013-01-31 02:45:00,42.0,38.7,30.07,ESE,111,0.0,0.0,88,0.00,,,0.00,Wunderground v.1.15,2013-01-31 10:45:00,
2013-01-31 02:55:00,41.8,38.8,30.07,ESE,111,0.0,0.0,89,0.00,,,0.00,Wunderground v.1.15,2013-01-31 10:55:00,
2013-01-31 03:00:00,41.7,38.7,30.06,ESE,111,0.0,0.0,89,0.00,,,0.00,Wunderground v.1.15,2013-01-31 11:00:00,
2013-01-31 03:10:00,41.7,38.7,30.06,ESE,111,0.0,0.0,89,0.00,,,0.00,Wunderground v.1.15,2013-01-31 11:10:00,
2013-01-31 03:20:00,41.7,38.7,30.06,ESE,111,0.0,0.0,89,0.00,,,0.00,Wunderground v.1.15,2013-01-31 11:20:00,
2013-01-31 03:30:00,41.4,38.4,30.06,ESE,111,0.0,0.0,89,0.00,,,0.00,Wunderground v.1.15,2013-01-31 11:30:00,
2013-01-31 03:40:00,41.1,38.1,30.06,ESE,111,0.0,0.0,89,0.00,,,0.00,Wunderground v.1.15,2013-01-31 11:40:00,
2013-01-31 03:50:00,40.8,37.8,30.06,ESE,111,0.0,0.0,89,0.00,,,0.00,Wunderground v.1.15,2013-01-31 11:50:00,
2013-01-31 04:00:00,40.8,38.1,30.06,ESE,111,0.0,0.0,90,0.00,,,0.00,Wunderground v.1.15,2013-01-31 12:00:00,
2013-01-31 04:10:00,41.0,38.3,30.06,ESE,111,0.0,0.0,90,0.00,,,0.00,Wunderground v.1.15,2013-01-31 12:10:00,
2013-01-31 04:19:00,41.1,38.4,30.06,ESE,111,0.0,0.0,90,0.00,,,0.00,Wunderground v.1.15,2013-01-31 12:19:00,
2013-01-31 04:25:00,41.1,38.4,30.06,ESE,111,0.0,0.0,90,0.00,,,0.00,Wunderground v.1.15,2013-01-31 12:25:00,
2013-01-31 04:35:00,41.0,38.3,30.06,ESE,111,0.0,0.0,90,0.00,,,0.00,Wunderground v.1.15,2013-01-31 12:35:00,
2013-01-31 04:41:00,40.9,38.2,30.06,ESE,111,0.0,0.0,90,0.00,,,0.00,Wunderground v.1.15,2013-01-31 12:41:00,
2013-01-31 04:51:00,40.9,38.2,30.06,ESE,111,0.0,0.0,90,0.00,,,0.00,Wunderground v.1.15,2013-01-31 12:51:00,
2013-01-31 04:56:00,40.8,38.1,30.06,ESE,111,0.0,0.0,90,0.00,,,0.00,Wunderground v.1.15,2013-01-31 12:56:00,
2013-01-31 05:01:00,40.7,38.0,30.06,ESE,111,0.0,0.0,90,0.00,,,0.00,Wunderground v.1.15,2013-01-31 13:01:00,
2013-01-31 05:11:00,40.8,38.4,30.06,ESE,111,0.0,0.0,91,0.00,,,0.00,Wunderground v.1.15,2013-01-31 13:11:00,
2013-01-31 05:21:00,40.7,38.3,30.06,ESE,111,0.0,0.0,91,0.00,,,0.00,Wunderground v.1.15,2013-01-31 13:21:00,
2013-01-31 05:30:00,40.8,38.4,30.06,ESE,111,0.0,0.0,91,0.00,,,0.00,Wunderground v.1.15,2013-01-31 13:30:00,
2013-01-31 05:40:00,40.7,38.3,30.06,ESE,111,0.0,0.0,91,0.00,,,0.00,Wunderground v.1.15,2013-01-31 13:40:00,
2013-01-31 05:45:00,40.7,38.3,30.07,ESE,111,0.0,0.0,91,0.00,,,0.00,Wunderground v.1.15,2013-01-31 13:45:00,
2013-01-31 05:55:00,40.8,38.4,30.06,SE,125,0.0,0.0,91,0.00,,,0.00,Wunderground v.1.15,2013-01-31 13:55:00,
2013-01-31 06:00:00,40.8,38.4,30.07,SE,125,0.0,0.0,91,0.00,,,0.00,Wunderground v.1.15,2013-01-31 14:00:00,
2013-01-31 06:06:00,40.8,38.4,30.07,SE,125,0.0,0.0,91,0.00,,,0.00,Wunderground v.1.15,2013-01-31 14:06:00,
2013-01-31 06:15:00,40.6,38.2,30.07,SE,125,0.0,0.0,91,0.00,,,0.00,Wunderground v.1.15,2013-01-31 14:15:00,
2013-01-31 06:25:00,40.4,38.0,30.07,SE,125,0.0,0.0,91,0.00,,,0.00,Wunderground v.1.15,2013-01-31 14:25:00,
2013-01-31 06:35:00,40.4,38.0,30.07,SE,125,0.0,0.0,91,0.00,,,0.00,Wunderground v.1.15,2013-01-31 14:35:00,
2013-01-31 06:45:00,40.4,38.0,30.07,SE,125,0.0,0.0,91,0.00,,,0.00,Wunderground v.1.15,2013-01-31 14:45:00,
2013-01-31 06:55:00,40.4,38.0,30.07,SE,125,0.0,0.0,91,0.00,,,0.00,Wunderground v.1.15,2013-01-31 14:55:00,
2013-01-31 07:00:00,40.5,38.1,30.07,SE,125,0.0,0.0,91,0.00,,,0.00,Wunderground v.1.15,2013-01-31 15:00:00,
2013-01-31 07:10:00,40.4,38.0,30.07,SE,125,0.0,0.0,91,0.00,,,0.01,Wunderground v.1.15,2013-01-31 15:10:00,
2013-01-31 07:20:00,40.3,37.9,30.07,SE,125,0.0,0.0,91,0.00,,,0.01,Wunderground v.1.15,2013-01-31 15:20:00,
2013-01-31 07:30:00,40.1,37.7,30.08,SE,125,0.0,0.0,91,0.00,,,0.01,Wunderground v.1.15,2013-01-31 15:30:00,
2013-01-31 07:35:00,40.1,37.7,30.08,SE,125,0.0,0.0,91,0.00,,,0.01,Wunderground v.1.15,2013-01-31 15:35:00,
2013-01-31 07:45:00,39.8,37.4,30.08,SE,125,0.0,0.0,91,0.00,,,0.01,Wunderground v.1.15,2013-01-31 15:45:00,
2013-01-31 07:55:00,39.6,37.2,30.08,SE,125,0.0,0.0,91,0.00,,,0.01,Wunderground v.1.15,2013-01-31 15:55:00,
2013-01-31 08:00:00,39.5,37.1,30.08,SE,125,0.0,0.0,91,0.00,,,0.01,Wunderground v.1.15,2013-01-31 16:00:00,
2013-01-31 08:10:00,39.6,37.2,30.09,SE,125,0.0,0.0,91,0.00,,,0.01,Wunderground v.1.15,2013-01-31 16:10:00,
2013-01-31 08:15:00,39.6,37.2,30.09,SE,125,0.0,0.0,91,0.00,,,0.01,Wunderground v.1.15,2013-01-31 16:15:00,
2013-01-31 08:25:00,39.9,37.5,30.09,SE,125,0.0,0.0,91,0.00,,,0.01,Wunderground v.1.15,2013-01-31 16:25:00,
2013-01-31 08:35:00,40.7,38.6,30.09,SE,126,0.0,0.0,92,0.00,,,0.01,Wunderground v.1.15,2013-01-31 16:35:00,
2013-01-31 08:40:00,41.1,40.3,30.09,SE,126,0.0,0.0,97,0.00,,,0.01,Wunderground v.1.15,2013-01-31 16:40:00,
2013-01-31 08:50:00,42.0,39.6,30.09,SE,125,0.0,0.0,91,0.00,,,0.01,Wunderground v.1.15,2013-01-31 16:50:00,
2013-01-31 09:00:00,43.0,40.0,30.10,SE,125,0.0,0.0,89,0.00,,,0.01,Wunderground v.1.15,2013-01-31 17:00:00,
2013-01-31 09:10:00,44.6,40.7,30.10,NE,56,0.0,1.0,86,0.00,,,0.01,Wunderground v.1.15,2013-01-31 17:10:00,
2013-01-31 09:20:00,45.3,40.4,30.10,ENE,57,0.0,0.0,83,0.00,,,0.01,Wunderground v.1.15,2013-01-31 17:20:00,
2013-01-31 09:25:00,45.8,40.6,30.10,ENE,57,0.0,0.0,82,0.00,,,0.01,Wunderground v.1.15,2013-01-31 17:25:00,
2013-01-31 09:35:00,46.9,41.7,30.10,ENE,57,0.0,0.0,82,0.00,,,0.01,Wunderground v.1.15,2013-01-31 17:35:00,
2013-01-31 09:41:00,48.2,42.3,30.10,NNE,28,0.0,0.0,80,0.00,,,0.01,Wunderground v.1.15,2013-01-31 17:41:00,
2013-01-31 09:51:00,48.2,42.6,30.09,ENE,57,0.0,0.0,81,0.00,,,0.01,Wunderground v.1.15,2013-01-31 17:51:00,
2013-01-31 10:01:00,49.2,43.3,30.09,ENE,57,0.0,0.0,80,0.00,,,0.01,Wunderground v.1.15,2013-01-31 18:01:00,
2013-01-31 10:11:00,49.4,42.8,30.09,ENE,57,0.0,0.0,78,0.00,,,0.01,Wunderground v.1.15,2013-01-31 18:11:00,
2013-01-31 10:21:00,50.3,42.3,30.09,ENE,57,0.0,0.0,74,0.00,,,0.01,Wunderground v.1.15,2013-01-31 18:21:00,
2013-01-31 10:31:00,50.9,42.6,30.08,NE,54,0.0,0.0,73,0.00,,,0.01,Wunderground v.1.15,2013-01-31 18:31:00,
2013-01-31 10:41:00,50.7,42.4,30.08,NE,54,0.0,0.0,73,0.00,,,0.01,Wunderground v.1.15,2013-01-31 18:41:00,
2013-01-31 10:50:00,51.9,42.8,30.08,NE,53,0.0,0.0,71,0.00,,,0.01,Wunderground v.1.15,2013-01-31 18:50:00,
2013-01-31 10:56:00,52.3,43.9,30.08,NE,53,0.0,0.0,73,0.00,,,0.01,Wunderground v.1.15,2013-01-31 18:56:00,
2013-01-31 11:01:00,53.1,44.7,30.07,NE,53,0.0,0.0,73,0.00,,,0.01,Wunderground v.1.15,2013-01-31 19:01:00,
2013-01-31 11:10:00,54.2,44.2,30.07,ENE,59,0.0,0.0,69,0.00,,,0.01,Wunderground v.1.15,2013-01-31 19:10:00,
2013-01-31 11:20:00,54.6,43.9,30.07,ENE,59,0.0,0.0,67,0.00,,,0.01,Wunderground v.1.15,2013-01-31 19:20:00,
2013-01-31 11:30:00,55.7,44.5,30.07,ENE,59,0.0,0.0,66,0.00,,,0.01,Wunderground v.1.15,2013-01-31 19:30:00,
2013-01-31 11:40:00,55.0,43.8,30.06,ENE,59,0.0,0.0,66,0.00,,,0.01,Wunderground v.1.15,2013-01-31 19:40:00,
2013-01-31 11:50:00,55.7,43.3,30.05,NE,56,0.0,0.0,63,0.00,,,0.01,Wunderground v.1.15,2013-01-31 19:50:00,
2013-01-31 12:01:00,56.5,45.3,30.05,ENE,61,0.0,0.0,66,0.00,,,0.01,Wunderground v.1.15,2013-01-31 20:01:00,
2013-01-31 12:10:00,58.4,43.2,30.04,ENE,61,0.0,0.0,57,0.00,,,0.01,Wunderground v.1.15,2013-01-31 20:10:00,
2013-01-31 12:20:00,58.9,44.1,30.03,ENE,61,0.0,0.0,58,0.00,,,0.01,Wunderground v.1.15,2013-01-31 20:20:00,
2013-01-31 12:25:00,59.0,44.7,30.04,ENE,61,0.0,0.0,59,0.00,,,0.01,Wunderground v.1.15,2013-01-31 20:25:00,
2013-01-31 12:35:00,58.4,44.6,30.03,ENE,61,0.0,0.0,60,0.00,,,0.01,Wunderground v.1.15,2013-01-31 20:35:00,
2013-01-31 12:45:00,58.9,44.6,30.03,ENE,61,0.0,0.0,59,0.00,,,0.01,Wunderground v.1.15,2013-01-31 20:45:00,
2013-01-31 12:55:00,59.0,44.7,30.03,ENE,61,0.0,1.0,59,0.00,,,0.01,Wunderground v.1.15,2013-01-31 20:55:00,
2013-01-31 13:00:00,59.1,44.8,30.02,ENE,61,0.0,0.0,59,0.00,,,0.01,Wunderground v.1.15,2013-01-31 21:00:00,
2013-01-31 13:10:00,59.6,45.2,30.02,ENE,61,0.0,0.0,59,0.00,,,0.01,Wunderground v.1.15,2013-01-31 21:10:00,
2013-01-31 13:20:00,59.8,45.9,30.02,ENE,61,0.0,0.0,60,0.00,,,0.01,Wunderground v.1.15,2013-01-31 21:20:00,
2013-01-31 13:30:00,59.9,46.0,30.01,ENE,61,0.0,0.0,60,0.00,,,0.01,Wunderground v.1.15,2013-01-31 21:30:00,
2013-01-31 13:40:00,59.9,46.0,30.01,ENE,61,0.0,0.0,60,0.00,,,0.01,Wunderground v.1.15,2013-01-31 21:40:00,
2013-01-31 13:50:00,59.9,45.5,30.00,ENE,61,0.0,0.0,59,0.00,,,0.01,Wunderground v.1.15,2013-01-31 21:50:00,
2013-01-31 13:55:00,59.9,45.5,30.00,ENE,61,0.0,0.0,59,0.00,,,0.01,Wunderground v.1.15,2013-01-31 21:55:00,
2013-01-31 14:00:00,59.9,44.2,30.00,ENE,61,0.0,0.0,56,0.00,,,0.01,Wunderground v.1.15,2013-01-31 22:00:00,
2013-01-31 14:10:00,60.0,44.7,30.00,ENE,61,0.0,0.0,57,0.00,,,0.01,Wunderground v.1.15,2013-01-31 22:10:00,
2013-01-31 14:20:00,60.3,45.5,30.00,ENE,61,0.0,0.0,58,0.00,,,0.01,Wunderground v.1.15,2013-01-31 22:20:00,
2013-01-31 14:30:00,60.4,45.1,29.99,ENE,61,0.0,0.0,57,0.00,,,0.01,Wunderground v.1.15,2013-01-31 22:30:00,
2013-01-31 14:36:00,60.6,46.2,29.99,ENE,61,0.0,0.0,59,0.00,,,0.01,Wunderground v.1.15,2013-01-31 22:36:00,
2013-01-31 14:41:00,60.8,45.5,29.99,ENE,61,0.0,0.0,57,0.00,,,0.01,Wunderground v.1.15,2013-01-31 22:41:00,
2013-01-31 14:51:00,61.0,44.7,29.99,ENE,61,0.0,0.0,55,0.00,,,0.01,Wunderground v.1.15,2013-01-31 22:51:00,
2013-01-31 15:01:00,61.3,45.5,29.99,SE,129,0.0,0.0,56,0.00,,,0.01,Wunderground v.1.15,2013-01-31 23:01:00,
2013-01-31 15:11:00,61.5,45.2,29.98,SE,129,0.0,0.0,55,0.00,,,0.01,Wunderground v.1.15,2013-01-31 23:11:00,
2013-01-31 15:21:00,61.6,43.8,29.98,SE,129,0.0,0.0,52,0.00,,,0.01,Wunderground v.1.15,2013-01-31 23:21:00,
2013-01-31 15:31:00,61.6,44.8,29.98,SE,139,0.0,0.0,54,0.00,,,0.01,Wunderground v.1.15,2013-01-31 23:31:00,
2013-01-31 15:40:00,61.6,44.3,29.98,SE,124,0.0,0.0,53,0.00,,,0.01,Wunderground v.1.15,2013-01-31 23:40:00,
2013-01-31 15:46:00,61.6,44.8,29.97,East,92,0.0,1.0,54,0.00,,,0.01,Wunderground v.1.15,2013-01-31 23:46:00,
2013-01-31 15:55:00,61.5,44.7,29.97,NNW,344,0.0,0.0,54,0.00,,,0.01,Wunderground v.1.15,2013-01-31 23:55:00,
2013-01-31 16:01:00,61.5,44.7,29.98,ESE,121,0.0,1.0,54,0.00,,,0.01,Wunderground v.1.15,2013-02-01 00:01:00,
2013-01-31 16:10:00,61.3,45.0,29.98,SE,140,0.0,0.0,55,0.00,,,0.01,Wunderground v.1.15,2013-02-01 00:10:00,
2013-01-31 16:20:00,61.2,44.9,29.98,SE,142,1.0,1.0,55,0.00,,,0.01,Wunderground v.1.15,2013-02-01 00:20:00,
2013-01-31 16:30:00,61.2,44.4,29.98,SE,145,0.0,0.0,54,0.00,,,0.01,Wunderground v.1.15,2013-02-01 00:30:00,
2013-01-31 16:40:00,61.3,44.0,29.98,South,169,0.0,0.0,53,0.00,,,0.01,Wunderground v.1.15,2013-02-01 00:40:00,
2013-01-31 16:50:00,61.3,44.0,29.98,SE,126,1.0,1.0,53,0.00,,,0.01,Wunderground v.1.15,2013-02-01 00:50:00,
2013-01-31 17:00:00,61.1,44.3,29.98,SE,146,0.0,1.0,54,0.00,,,0.01,Wunderground v.1.15,2013-02-01 01:00:00,
2013-01-31 17:10:00,60.9,44.1,29.97,SE,139,0.0,0.0,54,0.00,,,0.01,Wunderground v.1.15,2013-02-01 01:10:00,
2013-01-31 17:20:00,60.7,44.4,29.97,SE,141,0.0,0.0,55,0.00,,,0.01,Wunderground v.1.15,2013-02-01 01:20:00,
2013-01-31 17:30:00,60.4,44.6,29.98,SE,140,0.0,0.0,56,0.00,,,0.01,Wunderground v.1.15,2013-02-01 01:30:00,
2013-01-31 17:35:00,60.1,44.8,29.97,ESE,106,0.0,1.0,57,0.00,,,0.01,Wunderground v.1.15,2013-02-01 01:35:00,
2013-01-31 17:45:00,59.7,44.4,29.98,ESE,120,0.0,0.0,57,0.00,,,0.01,Wunderground v.1.15,2013-02-01 01:45:00,
2013-01-31 17:55:00,59.2,44.4,29.98,ESE,119,0.0,2.0,58,0.00,,,0.01,Wunderground v.1.15,2013-02-01 01:55:00,
2013-01-31 18:00:00,59.0,44.2,29.98,SE,127,0.0,0.0,58,0.00,,,0.01,Wunderground v.1.15,2013-02-01 02:00:00,
2013-01-31 18:10:00,59.0,44.7,29.98,ESE,109,0.0,0.0,59,0.00,,,0.01,Wunderground v.1.15,2013-02-01 02:10:00,
2013-01-31 18:20:00,58.5,44.7,29.98,East,94,0.0,0.0,60,0.00,,,0.01,Wunderground v.1.15,2013-02-01 02:20:00,
2013-01-31 18:25:00,58.4,45.0,29.98,East,94,0.0,0.0,61,0.00,,,0.01,Wunderground v.1.15,2013-02-01 02:25:00,
2013-01-31 18:35:00,58.0,44.6,29.99,ESE,116,0.0,0.0,61,0.00,,,0.01,Wunderground v.1.15,2013-02-01 02:35:00,
2013-01-31 18:45:00,57.5,45.4,29.98,ESE,117,0.0,0.0,64,0.00,,,0.01,Wunderground v.1.15,2013-02-01 02:45:00,
2013-01-31 18:55:00,56.7,45.1,29.99,ESE,117,0.0,0.0,65,0.00,,,0.01,Wunderground v.1.15,2013-02-01 02:55:00,
2013-01-31 19:00:00,56.2,44.6,29.99,ESE,117,0.0,0.0,65,0.00,,,0.01,Wunderground v.1.15,2013-02-01 03:00:00,
2013-01-31 19:10:00,55.5,44.3,29.99,ESE,117,0.0,0.0,66,0.00,,,0.01,Wunderground v.1.15,2013-02-01 03:10:00,
2013-01-31 19:20:00,55.0,44.2,29.99,ESE,117,0.0,0.0,67,0.00,,,0.01,Wunderground v.1.15,2013-02-01 03:20:00,
2013-01-31 19:30:00,54.3,44.0,29.99,ESE,117,0.0,0.0,68,0.00,,,0.01,Wunderground v.1.15,2013-02-01 03:30:00,
2013-01-31 19:36:00,53.9,44.3,29.99,ESE,117,0.0,0.0,70,0.00,,,0.01,Wunderground v.1.15,2013-02-01 03:36:00,
2013-01-31 19:46:00,53.2,44.0,29.99,ESE,117,0.0,0.0,71,0.00,,,0.01,Wunderground v.1.15,2013-02-01 03:46:00,
2013-01-31 19:56:00,52.6,44.2,29.99,ESE,117,0.0,0.0,73,0.00,,,0.01,Wunderground v.1.15,2013-02-01 03:56:00,
2013-01-31 20:01:00,52.3,44.3,29.99,ESE,117,0.0,0.0,74,0.00,,,0.01,Wunderground v.1.15,2013-02-01 04:01:00,
2013-01-31 20:11:00,51.8,44.1,30.00,ESE,117,0.0,0.0,75,0.00,,,0.01,Wunderground v.1.15,2013-02-01 04:11:00,
2013-01-31 20:20:00,51.4,44.1,30.00,ESE,117,0.0,0.0,76,0.00,,,0.01,Wunderground v.1.15,2013-02-01 04:20:00,
2013-01-31 20:26:00,51.1,44.1,30.00,ESE,118,0.0,0.0,77,0.00,,,0.01,Wunderground v.1.15,2013-02-01 04:26:00,
2013-01-31 20:35:00,50.7,43.8,30.00,ESE,118,0.0,0.0,77,0.00,,,0.01,Wunderground v.1.15,2013-02-01 04:35:00,
2013-01-31 20:46:00,50.3,43.7,30.00,ESE,118,0.0,0.0,78,0.00,,,0.01,Wunderground v.1.15,2013-02-01 04:46:00,
2013-01-31 20:55:00,49.9,43.3,30.00,ESE,118,0.0,0.0,78,0.00,,,0.01,Wunderground v.1.15,2013-02-01 04:55:00,
2013-01-31 21:01:00,49.6,43.0,30.00,ESE,118,0.0,0.0,78,0.00,,,0.01,Wunderground v.1.15,2013-02-01 05:01:00,
2013-01-31 21:11:00,49.1,42.5,30.00,ESE,118,0.0,0.0,78,0.00,,,0.01,Wunderground v.1.15,2013-02-01 05:11:00,
2013-01-31 21:15:00,48.9,42.7,30.00,ESE,118,0.0,0.0,79,0.00,,,0.01,Wunderground v.1.15,2013-02-01 05:15:00,
2013-01-31 21:25:00,48.4,42.2,30.00,ESE,118,0.0,0.0,79,0.00,,,0.01,Wunderground v.1.15,2013-02-01 05:25:00,
2013-01-31 21:30:00,48.2,42.3,30.00,ESE,118,0.0,0.0,80,0.00,,,0.01,Wunderground v.1.15,2013-02-01 05:30:00,
2013-01-31 21:40:00,47.9,42.0,29.99,ESE,118,0.0,0.0,80,0.00,,,0.01,Wunderground v.1.15,2013-02-01 05:40:00,
2013-01-31 21:45:00,47.8,42.3,30.00,ESE,118,0.0,0.0,81,0.00,,,0.01,Wunderground v.1.15,2013-02-01 05:45:00,
2013-01-31 21:55:00,47.5,42.3,29.99,ESE,118,0.0,0.0,82,0.00,,,0.01,Wunderground v.1.15,2013-02-01 05:55:00,
2013-01-31 22:00:00,47.4,42.2,29.99,ESE,118,0.0,0.0,82,0.00,,,0.01,Wunderground v.1.15,2013-02-01 06:00:00,
2013-01-31 22:10:00,47.0,41.8,29.99,ESE,118,0.0,0.0,82,0.00,,,0.01,Wunderground v.1.15,2013-02-01 06:10:00,
2013-01-31 22:20:00,46.7,41.5,29.99,ESE,118,0.0,0.0,82,0.00,,,0.01,Wunderground v.1.15,2013-02-01 06:20:00,
2013-01-31 22:30:00,46.4,41.2,29.99,ESE,118,0.0,0.0,82,0.00,,,0.01,Wunderground v.1.15,2013-02-01 06:30:00,
2013-01-31 22:40:00,46.2,41.3,29.99,ESE,118,0.0,0.0,83,0.00,,,0.01,Wunderground v.1.15,2013-02-01 06:40:00,
2013-01-31 22:50:00,46.0,41.4,29.99,ESE,118,0.0,0.0,84,0.00,,,0.01,Wunderground v.1.15,2013-02-01 06:50:00,
2013-01-31 23:00:00,45.7,41.1,29.99,ESE,118,0.0,0.0,84,0.00,,,0.01,Wunderground v.1.15,2013-02-01 07:00:00,
2013-01-31 23:05:00,45.6,41.0,29.99,ESE,118,0.0,0.0,84,0.00,,,0.01,Wunderground v.1.15,2013-02-01 07:05:00,
2013-01-31 23:15:00,45.3,40.7,29.99,ESE,118,0.0,0.0,84,0.00,,,0.01,Wunderground v.1.15,2013-02-01 07:15:00,
2013-01-31 23:25:00,45.0,40.5,29.99,ESE,118,0.0,0.0,84,0.00,,,0.01,Wunderground v.1.15,2013-02-01 07:25:00,
2013-01-31 23:30:00,45.0,40.5,30.00,ESE,118,0.0,0.0,84,0.00,,,0.01,Wunderground v.1.15,2013-02-01 07:30:00,
2013-01-31 23:40:00,44.7,40.2,29.99,ESE,118,0.0,0.0,84,0.00,,,0.01,Wunderground v.1.15,2013-02-01 07:40:00,
2013-01-31 23:50:00,44.5,40.0,30.00,ESE,118,0.0,0.0,84,0.00,,,0.01,Wunderground v.1.15,2013-02-01 07:50:00,
2013-01-31 23:55:00,44.3,40.1,30.00,ESE,118,0.0,0.0,85,0.00,,,0.01,Wunderground v.1.15,2013-02-01 07:55:00,